Franklin, KY (42134)

7:41 AM CDT on August 20, 2014 (GMT -0500)
Friendship Rd.- NE Cross Plains | Change Station
CLOSE
Current Station
Personal Weather Station
Location: Cross Plains, TN
Elevation: 757 ft
Nearby Weather Stations

Elev 757 ft 36.57 °N, 86.67 °W | Updated 3 seconds ago

Clear
Clear
77.6 °F
Feels Like 79 °F
N
3.0
Wind Variable Wind from SSW
Gusts 7.0 mph

Today
High -- | Low -- °F
--% Chance of Precip.
Yesterday
High -- | Low -- °F
Precip. -- in
6:07 AM 7:31 PM
Waning Crescent, 22% visible
Pressure 29.92 in
Visibility 10.0 miles
Clouds Clear
Heat Index 79 °F
Dew Point 76 °F
Humidity 94%
Rainfall 0.00 in
Snow Depth Not available.
UV 0 out of 12
Pollen 9.20 out of 12
Air Quality Not available.
Flu Activity Not available.
METAR KBWG 201153Z AUTO 20004KT 10SM CLR 24/22 A2994 RMK AO2 SLP130 T02390222 10261 20233 51016

More Conditions Fewer Conditions

Pressure 29.92 in
Visibility 10.0 miles
Clouds Clear
Heat Index 79 °F
Dew Point 76 °F
Humidity 94%
Rainfall 0.00 in
Snow Depth Not available.
UV 0 out of 12
Pollen 9.20 out of 12
Air Quality Not available.
Flu Activity Not available.
METAR KBWG 201153Z AUTO 20004KT 10SM CLR 24/22 A2994 RMK AO2 SLP130 T02390222 10261 20233 51016

More Conditions Fewer Conditions

10-Day Weather Forecast

Almanac

Astronomy

Aug. 20, 2014 Rise Set
Actual Time 6:07 AM CDT 7:31 PM CDT
Civil Twilight 5:40 AM CDT 7:58 PM CDT
Nautical Twilight 5:07 AM CDT 8:30 PM CDT
Astronomical Twilight 4:33 AM CDT 9:04 PM CDT
Moon 1:49 AM CDT 4:12 PM CDT
Length of Visible Light 14h 17m
Length of Day
13h 23m
Tomorrow will be 2m 7s shorter.
Waning Crescent, 22% of the Moon is Illuminated
Today
Waning Crescent
Aug 25
New
Sep 2
First Quarter
Sep 8
Full
Sep 15
Last Quarter

Today's Extremes

State Highs State Lows

Community

WunderPhotos

Upload Photos

1,745,618 photos uploaded!

Nearby

Snow Depth

Station Depth Elevation
No new snow has been reported.

Earthquake Activity

City Distance Mag. Time & Date
No recent earthquake activity has been reported nearby.
Minimum magnitude displayed is 2.5.

Coastal Water Temperatures

Place Temperature
No Stations Reporting

Nearby Weather Stations